Lusaka, Zambia
Current Conditions -  °F | °C
As of 7:00 PM on Saturday 25 Oct 2014 (Local Time) from FVHA Reporting Station
Broken Clouds Broken Clouds  
Wind Chill: 70°   Ceiling: 8000
Heat Index: 70°   Visibility: 6mi
Dew Point: 52°   Wind: 20mph
Humidity: 53%   Direction: 70°ENE
Pressure: 30.12"   Gusts: NA
Location:  15.42°S, 28.29°E
Report Text: FVHA 251700Z 07017KT 9999 FEW050CB BKN080 21/11 Q1020 NOSIG
Loading
Personal Weather Stations






























Interactive Weather Map
Tropical Storm Tracking
New forecast layout! Learn more

10-Day Weather Forecast

Advertisements
Track Severe Weather on mobile